Time;durP1;ratioP1;P1;durP2;ratioP2;P2;SDS_P1;SDS_P2;PMS_P1;PMS_P2;Temp;Humidity;BMP_temperature;BMP_pressure;BME280_temperature;BME280_humidity;BME280_pressure;Samples;Min_cycle;Max_cycle;Signal;HPM_P1;HPM_P2
2023/11/11 00:01:50;;;;;;;1.30;0.80;;;21.30;58.10;;;;;;5033232;28;20484;-71
2023/11/11 00:04:15;;;;;;;1.20;0.73;;;21.20;58.10;;;;;;5033030;28;20662;-70
2023/11/11 00:06:41;;;;;;;1.00;0.77;;;21.30;58.10;;;;;;5032992;28;20183;-71
2023/11/11 00:09:09;;;;;;;1.17;0.90;;;21.30;58.10;;;;;;5032972;28;20187;-71
2023/11/11 00:11:36;;;;;;;1.00;0.80;;;21.30;58.20;;;;;;5032846;28;20230;-71
2023/11/11 00:14:01;;;;;;;1.37;0.83;;;21.30;58.20;;;;;;5032866;28;20480;-70
2023/11/11 00:16:30;;;;;;;1.53;0.70;;;21.20;58.10;;;;;;5032555;28;20922;-71
2023/11/11 00:18:56;;;;;;;1.10;0.70;;;21.30;58.10;;;;;;5032793;28;20728;-70
2023/11/11 00:21:22;;;;;;;0.90;0.80;;;21.20;58.10;;;;;;5031201;28;20466;-70
2023/11/11 00:23:48;;;;;;;1.37;0.77;;;21.30;58.10;;;;;;5032598;28;20405;-71
2023/11/11 00:26:13;;;;;;;1.00;0.80;;;21.20;58.10;;;;;;5032612;28;20198;-70
2023/11/11 00:28:41;;;;;;;0.90;0.70;;;21.30;58.20;;;;;;5032554;28;20172;-71
2023/11/11 00:31:08;;;;;;;1.00;0.70;;;21.30;58.20;;;;;;5032559;28;20179;-70
2023/11/11 00:33:34;;;;;;;1.17;0.90;;;21.20;58.10;;;;;;5032388;28;20932;-70
2023/11/11 00:36:01;;;;;;;0.93;0.70;;;21.30;58.10;;;;;;5032372;28;20805;-70
2023/11/11 00:38:27;;;;;;;1.20;0.80;;;21.30;58.10;;;;;;5032549;28;20971;-71
2023/11/11 00:40:53;;;;;;;0.90;0.80;;;21.30;58.20;;;;;;5032151;28;20454;-71
2023/11/11 00:43:18;;;;;;;0.90;0.70;;;21.30;58.10;;;;;;5032396;28;20180;-71
2023/11/11 00:45:44;;;;;;;0.90;0.70;;;21.20;58.10;;;;;;5032217;28;20278;-70
2023/11/11 00:48:10;;;;;;;1.00;0.70;;;21.20;58.10;;;;;;5032188;28;20171;-71
2023/11/11 00:50:36;;;;;;;1.27;0.77;;;21.30;58.10;;;;;;5032139;28;20180;-71
2023/11/11 00:53:02;;;;;;;1.20;0.83;;;21.20;58.10;;;;;;5032218;28;20182;-70
2023/11/11 00:55:28;;;;;;;1.37;0.70;;;21.30;58.10;;;;;;5032003;28;20868;-70
2023/11/11 00:57:53;;;;;;;1.00;0.70;;;21.20;58.10;;;;;;5032055;28;20422;-71
2023/11/11 01:00:21;;;;;;;1.10;0.77;;;21.20;58.10;;;;;;5031928;28;20175;-70
2023/11/11 01:02:48;;;;;;;0.90;0.70;;;21.20;58.10;;;;;;5030673;28;20245;-71
2023/11/11 01:05:14;;;;;;;0.90;0.80;;;21.20;58.10;;;;;;5031763;28;20901;-70
2023/11/11 01:07:39;;;;;;;0.93;0.70;;;21.20;58.10;;;;;;5031813;28;20489;-71
2023/11/11 01:10:07;;;;;;;0.90;0.70;;;21.20;58.10;;;;;;5032049;28;20411;-71
2023/11/11 01:12:33;;;;;;;1.10;0.80;;;21.20;58.10;;;;;;5031695;28;20209;-69
2023/11/11 01:14:58;;;;;;;1.03;0.70;;;21.20;58.10;;;;;;5031729;28;20497;-70
2023/11/11 01:17:24;;;;;;;0.90;0.70;;;21.20;58.10;;;;;;5031396;28;20587;-71
2023/11/11 01:19:50;;;;;;;1.00;0.70;;;21.20;58.10;;;;;;5031491;28;20287;-70
2023/11/11 01:22:19;;;;;;;2.00;0.83;;;21.20;58.10;;;;;;5031730;28;20196;-70
2023/11/11 01:24:45;;;;;;;1.10;0.90;;;21.20;58.10;;;;;;5031514;28;20556;-71
2023/11/11 01:27:12;;;;;;;1.00;0.80;;;21.20;58.10;;;;;;5031363;28;20505;-71
2023/11/11 01:29:38;;;;;;;0.97;0.70;;;21.20;58.10;;;;;;5031383;28;20423;-70
2023/11/11 01:32:05;;;;;;;1.00;0.70;;;21.20;58.10;;;;;;5030949;28;20423;-68
2023/11/11 01:34:31;;;;;;;1.00;0.80;;;21.20;58.10;;;;;;5031425;28;20425;-67
2023/11/11 01:36:56;;;;;;;1.00;0.80;;;21.20;58.10;;;;;;5031163;28;20793;-68
2023/11/11 01:39:22;;;;;;;0.93;0.77;;;21.20;58.10;;;;;;5031160;28;20230;-68
2023/11/11 01:41:48;;;;;;;1.17;0.70;;;21.20;58.10;;;;;;5031056;28;20211;-69
2023/11/11 01:44:13;;;;;;;0.90;0.70;;;21.20;58.10;;;;;;5029783;28;20720;-71
2023/11/11 01:46:40;;;;;;;1.00;0.80;;;21.20;58.10;;;;;;5031214;28;20199;-72
2023/11/11 01:49:06;;;;;;;0.80;0.60;;;21.20;58.10;;;;;;5031006;28;20546;-70
2023/11/11 01:51:33;;;;;;;0.90;0.70;;;21.20;58.10;;;;;;5031095;28;20414;-69
2023/11/11 01:54:00;;;;;;;0.90;0.70;;;21.20;58.10;;;;;;5030989;28;20445;-70
2023/11/11 01:56:25;;;;;;;1.13;0.70;;;21.20;58.10;;;;;;5030904;28;20516;-70
2023/11/11 01:58:52;;;;;;;0.90;0.70;;;21.20;58.10;;;;;;5030816;28;20518;-70
2023/11/11 02:01:18;;;;;;;0.90;0.70;;;21.20;58.10;;;;;;5030715;28;20238;-71
2023/11/11 02:03:44;;;;;;;1.00;0.70;;;21.20;58.10;;;;;;5030880;28;20414;-70
2023/11/11 02:06:11;;;;;;;0.80;0.60;;;21.20;58.10;;;;;;5030612;28;20460;-70
2023/11/11 02:08:36;;;;;;;1.00;0.70;;;21.20;58.10;;;;;;5031021;28;20210;-70
2023/11/11 02:11:05;;;;;;;0.90;0.70;;;21.20;58.00;;;;;;5030655;28;20432;-71
2023/11/11 02:13:35;;;;;;;1.00;0.70;;;21.20;58.10;;;;;;5030713;28;20198;-69
2023/11/11 02:16:05;;;;;;;0.90;0.70;;;21.20;58.00;;;;;;5030407;28;20439;-71
2023/11/11 02:18:31;;;;;;;1.00;0.87;;;21.20;58.10;;;;;;5030363;28;20889;-71
2023/11/11 02:20:57;;;;;;;0.90;0.70;;;21.20;58.00;;;;;;5030374;28;20458;-71
2023/11/11 02:23:34;;;;;;;1.00;0.80;;;21.20;58.10;;;;;;5030473;28;20414;-70
2023/11/11 02:26:02;;;;;;;1.00;0.80;;;21.20;58.10;;;;;;5030633;28;20908;-71
2023/11/11 02:28:28;;;;;;;1.10;0.80;;;21.20;58.00;;;;;;5030430;28;20886;-70
2023/11/11 02:30:54;;;;;;;1.10;0.80;;;21.20;58.10;;;;;;5030482;28;20410;-70
2023/11/11 02:33:20;;;;;;;0.90;0.70;;;21.20;58.00;;;;;;5030327;28;20416;-71
2023/11/11 02:35:46;;;;;;;0.90;0.70;;;21.20;58.00;;;;;;5030181;28;20589;-70
2023/11/11 02:38:12;;;;;;;1.00;0.77;;;21.20;58.00;;;;;;5030317;28;20777;-70
2023/11/11 02:40:41;;;;;;;0.90;0.70;;;21.20;58.10;;;;;;5030097;28;20461;-71
2023/11/11 02:43:07;;;;;;;0.90;0.60;;;21.20;58.00;;;;;;5030514;28;20873;-71
2023/11/11 02:45:33;;;;;;;1.00;0.80;;;21.20;58.10;;;;;;5029290;28;20434;-71
2023/11/11 02:48:00;;;;;;;1.10;0.60;;;21.20;58.00;;;;;;5030194;28;20202;-70
2023/11/11 02:50:27;;;;;;;1.00;0.70;;;21.20;58.00;;;;;;5028792;28;20951;-70
2023/11/11 02:52:53;;;;;;;0.80;0.60;;;21.20;58.10;;;;;;5030103;28;20455;-71
2023/11/11 02:55:19;;;;;;;1.10;0.80;;;21.20;58.00;;;;;;5030097;28;20495;-70
2023/11/11 02:57:45;;;;;;;0.93;0.63;;;21.20;58.00;;;;;;5030093;28;20403;-71
2023/11/11 03:00:12;;;;;;;1.13;0.70;;;21.20;58.00;;;;;;5030110;28;20215;-71
2023/11/11 03:02:38;;;;;;;0.80;0.60;;;21.20;58.00;;;;;;5030155;28;20940;-71
2023/11/11 03:05:07;;;;;;;1.00;0.70;;;21.20;58.00;;;;;;5029897;28;20429;-71
2023/11/11 03:07:34;;;;;;;0.93;0.63;;;21.20;58.00;;;;;;5029967;28;20406;-71
2023/11/11 03:10:04;;;;;;;1.00;0.80;;;21.20;58.00;;;;;;5030012;28;20406;-72
2023/11/11 03:12:30;;;;;;;1.20;0.70;;;21.20;58.00;;;;;;5030001;28;20492;-71
2023/11/11 03:14:56;;;;;;;1.20;0.70;;;21.20;58.00;;;;;;5029970;28;20421;-70
2023/11/11 03:17:23;;;;;;;1.10;0.87;;;21.20;58.00;;;;;;5029724;28;20580;-70
2023/11/11 03:19:48;;;;;;;0.80;0.67;;;21.20;58.00;;;;;;5030250;28;20898;-70
2023/11/11 03:22:14;;;;;;;1.23;0.80;;;21.20;58.00;;;;;;5028480;28;20461;-72
2023/11/11 03:24:41;;;;;;;0.93;0.63;;;21.20;58.10;;;;;;5029966;28;20638;-71
2023/11/11 03:27:06;;;;;;;1.00;0.70;;;21.20;58.00;;;;;;5029857;28;20667;-70
2023/11/11 03:29:32;;;;;;;0.90;0.70;;;21.20;58.00;;;;;;5030031;28;20406;-70
2023/11/11 03:31:57;;;;;;;1.07;0.80;;;21.20;58.10;;;;;;5029699;28;20223;-71
2023/11/11 03:34:23;;;;;;;0.90;0.70;;;21.20;58.00;;;;;;5029921;28;20176;-70
2023/11/11 03:36:49;;;;;;;0.90;0.80;;;21.20;58.00;;;;;;5029650;28;20199;-70
2023/11/11 03:39:14;;;;;;;0.90;0.63;;;21.20;58.00;;;;;;5030011;28;20238;-71
2023/11/11 03:41:40;;;;;;;0.80;0.60;;;21.20;58.00;;;;;;5029924;28;20214;-70
2023/11/11 03:44:08;;;;;;;1.00;0.70;;;21.20;58.10;;;;;;5029856;28;20178;-71
2023/11/11 03:46:34;;;;;;;0.90;0.67;;;21.20;58.00;;;;;;5030050;28;20187;-69
2023/11/11 03:49:00;;;;;;;1.10;0.77;;;21.20;58.10;;;;;;5029947;28;20772;-71
2023/11/11 03:51:25;;;;;;;1.33;1.07;;;21.10;57.90;;;;;;5029748;28;20250;-70
2023/11/11 03:53:51;;;;;;;1.00;0.70;;;21.20;58.00;;;;;;5029915;28;20167;-71
2023/11/11 03:56:19;;;;;;;1.10;0.80;;;21.20;58.00;;;;;;5031364;28;20269;-70
2023/11/11 03:58:46;;;;;;;1.20;0.80;;;21.20;58.00;;;;;;5033199;28;20167;-71
2023/11/11 04:01:12;;;;;;;0.83;0.63;;;21.10;57.90;;;;;;5033071;28;20800;-71
2023/11/11 04:03:39;;;;;;;0.80;0.60;;;21.10;57.90;;;;;;5033240;28;20402;-70
2023/11/11 04:06:06;;;;;;;1.00;0.73;;;21.10;57.90;;;;;;5033161;28;20211;-70
2023/11/11 04:08:34;;;;;;;1.13;0.70;;;21.20;58.00;;;;;;5033047;28;20825;-71
2023/11/11 04:11:02;;;;;;;1.07;0.70;;;21.10;57.90;;;;;;5031644;28;20429;-72
2023/11/11 04:13:27;;;;;;;0.90;0.70;;;21.10;58.00;;;;;;5033006;28;20410;-70
2023/11/11 04:15:53;;;;;;;0.87;0.63;;;21.20;58.00;;;;;;5031518;28;20583;-71
2023/11/11 04:18:19;;;;;;;0.80;0.60;;;21.10;58.00;;;;;;5033234;28;20202;-70
2023/11/11 04:20:44;;;;;;;1.73;0.80;;;21.10;58.00;;;;;;5032702;28;20206;-71
2023/11/11 04:23:10;;;;;;;1.10;0.80;;;21.10;58.00;;;;;;5032762;28;20168;-71
2023/11/11 04:25:36;;;;;;;1.13;0.80;;;21.20;58.00;;;;;;5032761;28;20200;-70
2023/11/11 04:28:01;;;;;;;1.00;0.70;;;21.10;58.00;;;;;;5032838;28;20175;-70
2023/11/11 04:30:27;;;;;;;1.40;0.80;;;21.10;57.90;;;;;;5032875;28;20176;-70
2023/11/11 04:32:52;;;;;;;1.00;0.70;;;21.10;58.00;;;;;;5032890;28;20176;-70
2023/11/11 04:35:18;;;;;;;1.17;0.87;;;21.10;58.00;;;;;;5032627;28;20167;-71
2023/11/11 04:37:44;;;;;;;0.90;0.60;;;21.20;58.10;;;;;;5031231;28;20644;-70
2023/11/11 04:40:10;;;;;;;0.90;0.63;;;21.10;57.90;;;;;;5032544;28;20172;-71
2023/11/11 04:42:37;;;;;;;1.00;0.90;;;21.10;58.00;;;;;;5032382;28;20599;-71
2023/11/11 04:45:03;;;;;;;1.00;0.90;;;21.20;58.10;;;;;;5032310;28;20414;-71
2023/11/11 04:47:29;;;;;;;0.80;0.60;;;21.10;58.00;;;;;;5032443;28;20410;-70
2023/11/11 04:49:55;;;;;;;0.90;0.80;;;21.10;57.90;;;;;;5032710;28;20631;-70
2023/11/11 04:52:21;;;;;;;0.87;0.70;;;21.10;58.00;;;;;;5032734;28;20784;-70
2023/11/11 04:54:48;;;;;;;0.93;0.70;;;21.10;58.00;;;;;;5032283;28;20418;-70
2023/11/11 04:57:13;;;;;;;0.90;0.63;;;21.10;58.00;;;;;;5032209;28;20195;-70
2023/11/11 04:59:39;;;;;;;0.90;0.70;;;21.10;58.00;;;;;;5032117;28;20770;-71
2023/11/11 05:02:05;;;;;;;0.93;0.70;;;21.10;58.00;;;;;;5032175;28;20571;-71
2023/11/11 05:04:31;;;;;;;1.00;0.73;;;21.10;58.00;;;;;;5032131;28;20172;-70
2023/11/11 05:06:57;;;;;;;1.00;0.73;;;21.10;58.00;;;;;;5031684;28;20200;-70
2023/11/11 05:09:22;;;;;;;0.90;0.77;;;21.10;58.00;;;;;;5031781;28;20761;-67
2023/11/11 05:11:48;;;;;;;1.00;0.60;;;21.10;58.00;;;;;;5032017;28;20182;-67
2023/11/11 05:14:17;;;;;;;1.10;0.70;;;21.10;58.00;;;;;;5031859;28;20180;-67
2023/11/11 05:16:52;;;;;;;0.90;0.70;;;21.10;58.00;;;;;;5031659;28;21305;-68
2023/11/11 05:19:18;;;;;;;1.00;0.70;;;21.10;58.00;;;;;;5031824;28;20436;-70
2023/11/11 05:21:44;;;;;;;1.20;0.70;;;21.10;58.60;;;;;;5031699;28;20458;-70
2023/11/11 05:24:10;;;;;;;1.00;0.80;;;21.10;58.00;;;;;;5032130;28;20428;-71
2023/11/11 05:26:38;;;;;;;0.93;0.70;;;21.10;58.10;;;;;;5031607;28;20206;-71
2023/11/11 05:29:04;;;;;;;1.00;0.70;;;21.10;58.00;;;;;;5031733;28;20406;-71
2023/11/11 05:31:31;;;;;;;1.00;0.73;;;21.00;57.90;;;;;;5031550;28;20437;-70
2023/11/11 05:33:59;;;;;;;1.00;0.70;;;21.10;58.10;;;;;;5031511;28;20414;-71
2023/11/11 05:36:26;;;;;;;1.07;0.80;;;21.10;58.00;;;;;;5031431;28;20460;-70
2023/11/11 05:38:53;;;;;;;0.97;0.70;;;21.10;58.10;;;;;;5031544;28;20999;-72
2023/11/11 05:41:23;;;;;;;0.90;0.60;;;21.10;58.00;;;;;;5031304;28;20516;-70
2023/11/11 05:43:48;;;;;;;0.90;0.70;;;21.00;57.90;;;;;;5031420;28;20480;-70
2023/11/11 05:46:14;;;;;;;1.20;0.80;;;21.10;58.00;;;;;;5031235;28;20429;-70
2023/11/11 05:48:40;;;;;;;0.80;0.60;;;21.10;58.00;;;;;;5031284;28;20669;-71
2023/11/11 05:51:09;;;;;;;0.90;0.70;;;21.10;58.10;;;;;;5031116;28;20175;-71
2023/11/11 05:53:35;;;;;;;0.97;0.70;;;21.10;58.10;;;;;;5031262;28;20415;-71
2023/11/11 05:56:01;;;;;;;1.00;0.70;;;21.10;58.10;;;;;;5030943;28;20426;-70
2023/11/11 05:58:26;;;;;;;0.90;0.73;;;21.10;58.10;;;;;;5031111;28;20191;-71
2023/11/11 06:00:52;;;;;;;1.00;0.80;;;21.10;58.10;;;;;;5030759;28;20465;-70
2023/11/11 06:03:18;;;;;;;1.00;0.70;;;21.10;58.10;;;;;;5031068;28;20178;-70
2023/11/11 06:05:45;;;;;;;1.10;0.77;;;21.10;58.10;;;;;;5030849;28;20202;-70
2023/11/11 06:08:11;;;;;;;0.80;0.70;;;21.10;58.00;;;;;;5031008;28;20203;-70
2023/11/11 06:10:41;;;;;;;0.83;0.67;;;21.10;58.00;;;;;;5031012;28;20781;-70
2023/11/11 06:13:07;;;;;;;0.80;0.60;;;21.10;58.00;;;;;;5031041;28;20410;-70
2023/11/11 06:15:35;;;;;;;0.87;0.60;;;21.10;58.00;;;;;;5030727;28;20438;-71
2023/11/11 06:18:01;;;;;;;0.93;0.70;;;21.10;58.00;;;;;;5029316;28;20223;-71
2023/11/11 06:20:28;;;;;;;0.90;0.70;;;21.10;58.00;;;;;;5030626;28;20991;-71
2023/11/11 06:22:54;;;;;;;0.83;0.67;;;21.10;58.10;;;;;;5030743;28;20833;-70
2023/11/11 06:25:20;;;;;;;0.90;0.70;;;21.10;58.00;;;;;;5031021;28;20414;-70
2023/11/11 06:27:47;;;;;;;0.90;0.70;;;21.10;58.00;;;;;;5030568;28;20785;-70
2023/11/11 06:30:16;;;;;;;1.00;0.80;;;21.10;58.00;;;;;;5030931;28;20409;-70
2023/11/11 06:32:45;;;;;;;0.80;0.60;;;21.10;58.00;;;;;;5030627;28;20422;-71
2023/11/11 06:35:12;;;;;;;0.83;0.70;;;21.10;58.00;;;;;;5030549;28;20418;-70
2023/11/11 06:37:39;;;;;;;0.90;0.60;;;21.10;58.00;;;;;;5030528;28;20414;-70
2023/11/11 06:40:07;;;;;;;0.90;0.63;;;21.10;58.00;;;;;;5029075;28;20512;-70
2023/11/11 06:42:33;;;;;;;0.80;0.63;;;21.10;58.00;;;;;;5030423;28;20454;-71
2023/11/11 06:44:59;;;;;;;0.90;0.60;;;21.10;58.00;;;;;;5030391;28;21091;-70
2023/11/11 06:47:24;;;;;;;0.90;0.60;;;21.10;58.00;;;;;;5030378;28;20434;-71
2023/11/11 06:49:50;;;;;;;1.10;0.70;;;21.10;58.00;;;;;;5030480;28;20421;-70
2023/11/11 06:52:16;;;;;;;0.90;0.73;;;21.10;58.50;;;;;;5030408;28;20226;-70
2023/11/11 06:54:43;;;;;;;0.90;0.70;;;21.10;58.00;;;;;;5030390;28;20461;-71
2023/11/11 06:57:09;;;;;;;0.90;0.70;;;21.10;58.00;;;;;;5030489;28;20635;-71
2023/11/11 06:59:37;;;;;;;0.90;0.60;;;21.10;58.00;;;;;;5030275;28;20424;-70
2023/11/11 07:02:03;;;;;;;0.93;0.70;;;21.10;58.00;;;;;;5030269;28;20461;-71
2023/11/11 07:04:29;;;;;;;1.20;0.70;;;21.10;58.00;;;;;;5030327;28;20469;-70
2023/11/11 07:06:54;;;;;;;0.90;0.60;;;21.10;58.00;;;;;;5030213;28;20437;-70
2023/11/11 07:09:20;;;;;;;1.17;0.77;;;21.10;58.00;;;;;;5030356;28;20266;-70
2023/11/11 07:11:47;;;;;;;1.00;0.80;;;21.10;58.00;;;;;;5030286;28;20203;-70
2023/11/11 07:14:13;;;;;;;0.80;0.60;;;21.10;58.00;;;;;;5030492;28;20178;-71
2023/11/11 07:16:39;;;;;;;0.90;0.77;;;21.10;58.00;;;;;;5030302;28;20462;-71
2023/11/11 07:19:05;;;;;;;0.80;0.70;;;21.20;58.10;;;;;;5030614;28;20902;-70
2023/11/11 07:21:31;;;;;;;0.90;0.70;;;21.10;57.90;;;;;;5028804;28;20808;-71
2023/11/11 07:23:57;;;;;;;0.90;0.70;;;21.20;58.10;;;;;;5030251;28;20489;-70
2023/11/11 07:26:23;;;;;;;0.90;0.70;;;21.10;58.00;;;;;;5030134;28;21192;-70
2023/11/11 07:28:48;;;;;;;1.00;0.77;;;21.10;58.00;;;;;;5030091;28;20251;-71
2023/11/11 07:31:16;;;;;;;0.87;0.67;;;21.10;57.90;;;;;;5032108;28;20180;-69
2023/11/11 07:33:42;;;;;;;1.20;0.80;;;21.10;58.00;;;;;;5033936;28;20180;-71
2023/11/11 07:36:09;;;;;;;1.00;0.70;;;21.10;58.00;;;;;;5033872;28;20818;-70
2023/11/11 07:38:39;;;;;;;1.00;0.70;;;21.10;57.90;;;;;;5034175;28;20423;-71
2023/11/11 07:41:06;;;;;;;0.90;0.60;;;21.20;58.00;;;;;;5033795;28;20836;-71
2023/11/11 07:43:32;;;;;;;1.00;0.70;;;21.10;57.90;;;;;;5033888;28;20457;-70
2023/11/11 07:46:00;;;;;;;0.90;0.70;;;21.10;57.90;;;;;;5033572;28;20462;-71
2023/11/11 07:48:26;;;;;;;0.90;0.63;;;21.20;58.00;;;;;;5033662;28;20988;-70
2023/11/11 07:50:51;;;;;;;0.90;0.70;;;21.10;57.90;;;;;;5034228;28;20779;-70
2023/11/11 07:53:18;;;;;;;0.90;0.67;;;21.10;57.90;;;;;;5033581;28;20414;-71
2023/11/11 07:55:44;;;;;;;0.80;0.63;;;21.20;58.00;;;;;;5033466;28;20198;-70
2023/11/11 07:58:11;;;;;;;0.90;0.73;;;21.10;57.90;;;;;;5033611;28;20442;-71
2023/11/11 08:00:36;;;;;;;1.00;0.67;;;21.10;57.90;;;;;;5033213;28;20418;-70
2023/11/11 08:03:05;;;;;;;0.80;0.60;;;21.10;57.90;;;;;;5033639;28;20412;-69
2023/11/11 08:05:32;;;;;;;0.90;0.60;;;21.10;57.90;;;;;;5033412;28;20629;-71
2023/11/11 08:07:58;;;;;;;0.80;0.60;;;21.10;58.00;;;;;;5033239;28;20457;-70
2023/11/11 08:10:25;;;;;;;1.00;0.70;;;21.10;57.90;;;;;;5033523;28;20417;-70
2023/11/11 08:12:52;;;;;;;1.00;0.70;;;21.20;58.10;;;;;;5033542;28;20493;-71
2023/11/11 08:15:21;;;;;;;0.80;0.60;;;21.10;57.90;;;;;;5033398;28;20834;-70
2023/11/11 08:17:48;;;;;;;0.80;0.60;;;21.10;57.90;;;;;;5032935;28;20440;-71
2023/11/11 08:20:16;;;;;;;0.90;0.67;;;21.10;57.90;;;;;;5033088;28;20415;-70
2023/11/11 08:22:46;;;;;;;0.80;0.60;;;21.10;57.90;;;;;;5033271;28;20460;-71
2023/11/11 08:25:14;;;;;;;0.90;0.70;;;21.10;57.90;;;;;;5033236;28;21057;-70
2023/11/11 08:27:44;;;;;;;0.80;0.60;;;21.20;58.00;;;;;;5033007;28;20425;-71
2023/11/11 08:30:10;;;;;;;0.90;0.70;;;21.20;58.00;;;;;;5033006;28;20944;-72
2023/11/11 08:32:37;;;;;;;2.70;0.70;;;21.10;57.90;;;;;;5032829;28;20418;-71
2023/11/11 08:35:05;;;;;;;0.83;0.70;;;21.20;58.00;;;;;;5033057;28;20418;-70
2023/11/11 08:37:32;;;;;;;0.80;0.60;;;21.20;58.00;;;;;;5032967;28;20445;-71
2023/11/11 08:39:58;;;;;;;0.90;0.70;;;21.20;58.00;;;;;;5032889;28;20460;-70
2023/11/11 08:42:23;;;;;;;0.90;0.67;;;21.10;57.90;;;;;;5031548;28;20453;-70
2023/11/11 08:44:51;;;;;;;0.90;0.60;;;21.10;57.90;;;;;;5032980;28;20417;-70
2023/11/11 08:47:17;;;;;;;1.40;0.70;;;21.10;57.90;;;;;;5032677;28;20194;-70
2023/11/11 08:49:43;;;;;;;0.80;0.60;;;21.10;57.90;;;;;;5033093;28;20410;-70
2023/11/11 08:52:09;;;;;;;0.80;0.70;;;21.20;58.00;;;;;;5032586;28;20429;-71
2023/11/11 08:54:35;;;;;;;0.90;0.60;;;21.20;58.10;;;;;;5032505;28;20637;-71
2023/11/11 08:57:01;;;;;;;0.90;0.60;;;21.10;57.90;;;;;;5031171;28;20534;-71
2023/11/11 08:59:26;;;;;;;0.80;0.70;;;21.10;57.90;;;;;;5032490;28;20191;-69
2023/11/11 09:01:52;;;;;;;0.80;0.70;;;21.10;58.00;;;;;;5032395;28;20199;-69
2023/11/11 09:04:18;;;;;;;1.10;0.70;;;21.10;58.00;;;;;;5030951;28;20261;-72
2023/11/11 09:06:44;;;;;;;0.90;0.70;;;21.10;58.00;;;;;;5032068;28;20191;-71
2023/11/11 09:09:14;;;;;;;1.17;0.90;;;21.10;58.00;;;;;;5032553;28;20639;-70
2023/11/11 09:11:40;;;;;;;0.80;0.60;;;21.10;57.90;;;;;;5032164;28;20395;-71
2023/11/11 09:14:06;;;;;;;1.00;0.70;;;21.20;58.10;;;;;;5032042;28;20417;-70
2023/11/11 09:16:32;;;;;;;1.07;0.73;;;21.20;58.10;;;;;;5032057;28;20191;-71
2023/11/11 09:18:59;;;;;;;0.80;0.60;;;21.10;57.90;;;;;;5032104;28;20176;-70
2023/11/11 09:21:27;;;;;;;0.80;0.60;;;21.10;58.00;;;;;;5031893;28;20468;-69
2023/11/11 09:23:52;;;;;;;0.80;0.60;;;21.10;57.90;;;;;;5032085;28;20460;-71
2023/11/11 09:26:19;;;;;;;1.00;0.70;;;21.10;58.00;;;;;;5031525;28;20933;-72
2023/11/11 09:28:45;;;;;;;1.00;0.70;;;21.20;58.00;;;;;;5031824;28;20175;-71
2023/11/11 09:31:12;;;;;;;1.00;0.70;;;21.10;57.90;;;;;;5031713;28;20425;-70
2023/11/11 09:33:39;;;;;;;0.97;0.70;;;21.20;58.10;;;;;;5031747;28;20411;-71
2023/11/11 09:36:06;;;;;;;1.00;0.90;;;21.20;58.00;;;;;;5030280;28;20450;-70
2023/11/11 09:38:32;;;;;;;0.90;0.70;;;21.20;58.00;;;;;;5031994;28;20465;-71
2023/11/11 09:40:58;;;;;;;0.90;0.70;;;21.10;57.90;;;;;;5032019;28;20450;-70
2023/11/11 09:43:24;;;;;;;1.00;0.70;;;21.10;57.90;;;;;;5031444;28;20239;-71
2023/11/11 09:45:51;;;;;;;0.90;0.70;;;21.10;57.90;;;;;;5031233;28;20488;-70
2023/11/11 09:48:17;;;;;;;1.10;0.70;;;21.20;58.00;;;;;;5031517;28;20402;-70
2023/11/11 09:50:44;;;;;;;1.17;0.60;;;21.20;58.00;;;;;;5031600;28;20414;-71
2023/11/11 09:53:12;;;;;;;0.90;0.60;;;21.20;58.00;;;;;;5031252;28;20167;-69
2023/11/11 09:55:40;;;;;;;0.90;0.70;;;21.20;58.10;;;;;;5031174;28;20426;-70
2023/11/11 09:58:09;;;;;;;0.90;0.70;;;21.20;58.00;;;;;;5031201;28;20410;-71
2023/11/11 10:00:35;;;;;;;0.90;0.70;;;21.10;57.90;;;;;;5031463;28;20440;-71
2023/11/11 10:03:01;;;;;;;1.10;0.70;;;21.20;58.00;;;;;;5031487;28;20436;-70
2023/11/11 10:05:27;;;;;;;0.80;0.60;;;21.20;58.00;;;;;;5031249;28;20558;-71
2023/11/11 10:07:55;;;;;;;0.90;0.70;;;21.20;58.10;;;;;;5031108;28;20461;-71
2023/11/11 10:10:21;;;;;;;0.80;0.60;;;21.20;58.00;;;;;;5030877;28;20172;-69
2023/11/11 10:12:47;;;;;;;0.90;0.60;;;21.20;58.00;;;;;;5031144;28;20428;-67
2023/11/11 10:15:12;;;;;;;0.90;0.70;;;21.20;58.00;;;;;;5030880;28;20211;-68
2023/11/11 10:17:39;;;;;;;1.00;0.80;;;21.20;58.00;;;;;;5031074;28;20617;-68
2023/11/11 10:20:15;;;;;;;0.87;0.60;;;21.20;58.00;;;;;;5030840;28;20179;-67
2023/11/11 10:22:46;;;;;;;0.80;0.60;;;21.20;58.00;;;;;;5030741;28;20457;-69
2023/11/11 10:25:18;;;;;;;0.80;0.70;;;21.20;58.00;;;;;;5030926;28;20481;-68
2023/11/11 10:27:52;;;;;;;1.00;0.60;;;21.20;58.00;;;;;;5030675;28;20402;-66
2023/11/11 10:30:20;;;;;;;1.00;0.70;;;21.20;58.00;;;;;;5030905;28;20417;-67
2023/11/11 10:32:50;;;;;;;0.90;0.70;;;21.20;58.00;;;;;;5030809;28;20414;-68
2023/11/11 10:35:19;;;;;;;1.60;0.80;;;21.20;58.00;;;;;;5031121;28;20772;-68
2023/11/11 10:37:46;;;;;;;0.97;0.70;;;21.20;58.10;;;;;;5030654;28;20446;-68
2023/11/11 10:40:14;;;;;;;0.90;0.70;;;21.20;58.00;;;;;;5030463;28;20978;-68
2023/11/11 10:42:42;;;;;;;0.90;0.60;;;21.20;58.00;;;;;;5030856;28;20920;-68
2023/11/11 10:45:10;;;;;;;0.80;0.60;;;21.20;58.00;;;;;;5029033;28;20414;-67
2023/11/11 10:47:38;;;;;;;0.93;0.70;;;21.20;58.00;;;;;;5030535;28;20410;-68
2023/11/11 10:50:05;;;;;;;0.90;0.70;;;21.20;58.10;;;;;;5030617;28;20497;-69
2023/11/11 10:52:32;;;;;;;0.80;0.60;;;21.20;58.00;;;;;;5029291;28;20434;-70
2023/11/11 10:54:59;;;;;;;0.90;0.67;;;21.20;58.10;;;;;;5030965;28;20449;-70
2023/11/11 10:57:27;;;;;;;0.90;0.70;;;21.20;58.10;;;;;;5030453;28;20444;-70
2023/11/11 10:59:53;;;;;;;1.10;0.70;;;21.20;58.10;;;;;;5030541;28;20464;-70
2023/11/11 11:02:19;;;;;;;0.90;0.70;;;21.20;58.10;;;;;;5028965;28;20837;-66
2023/11/11 11:04:50;;;;;;;0.90;0.70;;;21.20;58.10;;;;;;5030209;28;20262;-71
2023/11/11 11:07:24;;;;;;;0.80;0.60;;;21.20;58.10;;;;;;5033823;28;21000;-71
2023/11/11 11:10:01;;;;;;;0.90;0.70;;;21.20;58.10;;;;;;5034374;28;20416;-70
2023/11/11 11:12:53;;;;;;;0.87;0.60;;;21.20;58.10;;;;;;5034680;28;20460;-70
2023/11/11 11:15:19;;;;;;;0.80;0.60;;;21.20;58.10;;;;;;5034348;28;20425;-71
2023/11/11 11:17:51;;;;;;;0.80;0.60;;;21.20;58.10;;;;;;5034452;28;20465;-70
2023/11/11 11:20:24;;;;;;;0.80;0.60;;;21.30;58.20;;;;;;5034408;28;20453;-70
2023/11/11 11:22:57;;;;;;;1.00;0.70;;;21.30;58.20;;;;;;5034122;28;20973;-71
2023/11/11 11:25:44;;;;;;;0.80;0.60;;;21.20;58.10;;;;;;5034126;28;20434;-70
2023/11/11 11:28:09;;;;;;;0.80;0.60;;;21.30;58.20;;;;;;5034092;28;20504;-71
2023/11/11 11:30:39;;;;;;;0.97;0.70;;;21.30;58.20;;;;;;5034046;28;20519;-70
2023/11/11 11:33:08;;;;;;;0.90;0.60;;;21.20;58.10;;;;;;5034034;28;20408;-70
2023/11/11 11:35:37;;;;;;;0.90;0.70;;;21.30;58.20;;;;;;5033879;28;20471;-71
2023/11/11 11:38:05;;;;;;;0.90;0.70;;;21.30;58.10;;;;;;5033803;28;21231;-70
2023/11/11 11:40:36;;;;;;;0.90;0.70;;;21.30;58.10;;;;;;5033761;28;20413;-70
2023/11/11 11:43:11;;;;;;;0.80;0.77;;;21.30;58.10;;;;;;5034381;28;20407;-69
2023/11/11 11:45:38;;;;;;;0.90;0.60;;;21.30;58.10;;;;;;5033581;28;20430;-71
2023/11/11 11:48:07;;;;;;;0.90;0.70;;;21.30;58.20;;;;;;5033981;28;20965;-70
2023/11/11 11:50:36;;;;;;;1.00;0.70;;;21.30;58.10;;;;;;5033677;28;20921;-70
2023/11/11 11:53:02;;;;;;;1.17;0.73;;;21.30;58.10;;;;;;5033846;28;20414;-71
2023/11/11 11:55:38;;;;;;;1.00;0.70;;;21.30;58.10;;;;;;5033587;28;20488;-69
2023/11/11 11:58:04;;;;;;;1.10;0.70;;;21.30;58.10;;;;;;5033567;28;20761;-71
2023/11/11 12:00:34;;;;;;;0.80;0.60;;;21.30;58.10;;;;;;5033750;28;20483;-70
2023/11/11 12:03:01;;;;;;;1.00;0.70;;;21.30;58.70;;;;;;5033486;28;20179;-71
2023/11/11 12:05:27;;;;;;;0.90;0.60;;;21.30;58.10;;;;;;5033353;28;20429;-70
2023/11/11 12:07:53;;;;;;;0.90;0.70;;;21.30;58.20;;;;;;5033360;28;20485;-70
2023/11/11 12:10:19;;;;;;;0.90;0.60;;;21.30;58.10;;;;;;5033447;28;20176;-70
2023/11/11 12:12:46;;;;;;;0.93;0.60;;;21.30;58.10;;;;;;5033060;28;20413;-70
2023/11/11 12:15:12;;;;;;;0.90;0.60;;;21.30;58.10;;;;;;5033304;28;20410;-71
2023/11/11 12:17:42;;;;;;;0.97;0.70;;;21.30;58.10;;;;;;5032899;28;20476;-70
2023/11/11 12:20:10;;;;;;;0.80;0.60;;;21.30;58.10;;;;;;5033358;28;20880;-69
2023/11/11 12:22:44;;;;;;;1.00;0.60;;;21.30;58.10;;;;;;5033098;28;20469;-71
2023/11/11 12:25:10;;;;;;;0.80;0.70;;;21.40;58.20;;;;;;5033110;28;20944;-70
2023/11/11 12:27:42;;;;;;;1.00;0.60;;;21.30;58.10;;;;;;5032917;28;20439;-70
2023/11/11 12:30:21;;;;;;;0.80;0.60;;;21.30;58.10;;;;;;5032981;28;20410;-71
2023/11/11 12:33:08;;;;;;;0.90;0.67;;;21.30;58.10;;;;;;5033046;28;20410;-70
2023/11/11 12:35:35;;;;;;;0.90;0.60;;;21.30;58.10;;;;;;5032680;28;20446;-70
2023/11/11 12:38:25;;;;;;;1.20;0.80;;;21.30;58.20;;;;;;5033336;28;20552;-67
2023/11/11 12:40:52;;;;;;;0.90;0.70;;;21.30;58.20;;;;;;5032762;28;20418;-69
2023/11/11 12:43:22;;;;;;;1.10;0.80;;;21.30;58.20;;;;;;5033083;28;20468;-71
2023/11/11 12:45:54;;;;;;;0.90;0.70;;;21.30;58.20;;;;;;5032698;28;20437;-70
2023/11/11 12:48:22;;;;;;;0.90;0.60;;;21.30;58.20;;;;;;5031820;28;20402;-70